createdAt,value
2018-07-04T00:01:07.430Z,4.50
2018-07-04T00:03:47.127Z,4.63
2018-07-04T00:06:26.886Z,4.20
2018-07-04T00:09:06.972Z,4.20
2018-07-04T00:11:46.788Z,5.00
2018-07-04T00:14:20.640Z,4.23
2018-07-04T00:17:00.489Z,4.30
2018-07-04T00:19:40.279Z,4.47
2018-07-04T00:22:14.110Z,4.53
2018-07-04T00:24:53.952Z,4.30
2018-07-04T00:27:33.820Z,4.73
2018-07-04T00:30:13.767Z,4.80
2018-07-04T00:32:53.664Z,4.23
2018-07-04T00:35:27.542Z,4.33
2018-07-04T00:38:07.285Z,4.13
2018-07-04T00:40:46.925Z,4.63
2018-07-04T00:43:26.650Z,4.07
2018-07-04T00:46:06.419Z,4.37
2018-07-04T00:48:46.104Z,4.87
2018-07-04T00:51:19.753Z,4.73
2018-07-04T00:53:59.543Z,4.30
2018-07-04T00:56:33.305Z,4.70
2018-07-04T00:59:13.006Z,4.27
2018-07-04T01:01:52.895Z,4.63
2018-07-04T01:04:32.574Z,4.50
2018-07-04T01:07:06.505Z,4.60
2018-07-04T01:09:46.212Z,4.30
2018-07-04T01:12:26.049Z,4.00
2018-07-04T01:15:05.792Z,4.23
2018-07-04T01:17:45.564Z,4.23
2018-07-04T01:20:25.362Z,4.80
2018-07-04T01:23:05.088Z,4.30
2018-07-04T01:25:44.753Z,4.57
2018-07-04T01:28:28.840Z,4.63
2018-07-04T01:31:08.488Z,5.03
2018-07-04T01:33:48.069Z,4.70
2018-07-04T01:36:27.713Z,4.80
2018-07-04T01:39:07.597Z,5.47
2018-07-04T01:41:47.456Z,4.50
2018-07-04T01:44:27.131Z,4.50
2018-07-04T01:47:06.865Z,4.57
2018-07-04T01:49:46.652Z,4.50
2018-07-04T01:52:20.286Z,4.43
2018-07-04T01:55:00.143Z,4.20
2018-07-04T01:57:39.861Z,4.87
2018-07-04T02:00:19.570Z,4.27
2018-07-04T02:02:59.301Z,4.57
2018-07-04T02:05:40.220Z,4.73
2018-07-04T02:08:20.025Z,5.47
2018-07-04T02:10:59.643Z,4.50
2018-07-04T02:13:39.426Z,5.07
2018-07-04T02:16:19.225Z,4.20
2018-07-04T02:18:59.132Z,5.23
2018-07-04T02:21:38.930Z,4.67
2018-07-04T02:24:18.665Z,5.20
2018-07-04T02:26:58.427Z,4.50
2018-07-04T02:29:38.126Z,5.00
2018-07-04T02:32:17.790Z,5.27
2018-07-04T02:34:59.604Z,4.23
2018-07-04T02:37:40.242Z,4.90
2018-07-04T02:40:20.085Z,5.00
2018-07-04T02:43:00.117Z,4.80
2018-07-04T02:45:39.775Z,4.53
2018-07-04T02:48:19.918Z,5.20
2018-07-04T02:51:00.298Z,4.57
2018-07-04T02:53:40.193Z,5.00
2018-07-04T02:56:19.975Z,5.20
2018-07-04T02:58:59.674Z,4.50
2018-07-04T03:01:39.343Z,5.17
2018-07-04T03:04:18.872Z,5.03
2018-07-04T03:06:58.552Z,4.63
2018-07-04T03:09:38.307Z,4.87
2018-07-04T03:12:18.040Z,4.90
2018-07-04T03:14:57.715Z,5.03
2018-07-04T03:17:37.304Z,4.97
2018-07-04T03:20:16.913Z,5.13
2018-07-04T03:22:56.712Z,4.80
2018-07-04T03:25:36.499Z,4.60
2018-07-04T03:28:16.115Z,5.17
2018-07-04T03:30:55.940Z,5.03
2018-07-04T03:33:35.831Z,5.30
2018-07-04T03:36:15.610Z,4.60
2018-07-04T03:38:55.375Z,4.87
2018-07-04T03:41:35.131Z,5.07
2018-07-04T03:44:14.785Z,5.27
2018-07-04T03:46:54.559Z,6.10
2018-07-04T03:49:34.148Z,5.77
2018-07-04T03:52:13.726Z,5.57
2018-07-04T03:54:53.292Z,5.60
2018-07-04T03:57:32.902Z,5.30
2018-07-04T04:00:12.562Z,5.50
2018-07-04T04:02:52.172Z,5.47
2018-07-04T04:05:31.874Z,5.77
2018-07-04T04:08:11.574Z,6.10
2018-07-04T04:10:51.172Z,5.77
2018-07-04T04:13:24.825Z,5.90
2018-07-04T04:16:04.644Z,5.50
2018-07-04T04:18:44.348Z,6.90
2018-07-04T04:21:18.063Z,7.10
2018-07-04T04:23:57.988Z,6.47
2018-07-04T04:26:37.740Z,7.43
2018-07-04T04:29:11.581Z,7.23
2018-07-04T04:31:51.400Z,6.37
2018-07-04T04:34:25.071Z,7.00
2018-07-04T04:37:04.844Z,6.83
2018-07-04T04:39:44.439Z,7.40
2018-07-04T04:42:24.219Z,7.13
2018-07-04T04:45:03.945Z,7.07
2018-07-04T04:47:44.012Z,7.27
2018-07-04T04:50:24.100Z,7.80
2018-07-04T04:53:03.784Z,9.20
2018-07-04T04:55:43.616Z,9.93
2018-07-04T04:58:23.502Z,11.53
2018-07-04T05:01:03.145Z,10.00
2018-07-04T05:03:42.972Z,11.13
2018-07-04T05:06:22.827Z,10.57
2018-07-04T05:08:56.498Z,11.33
2018-07-04T05:11:36.396Z,10.37
2018-07-04T05:14:16.154Z,10.23
2018-07-04T05:16:56.107Z,11.47
2018-07-04T05:19:35.863Z,11.70
2018-07-04T05:22:15.751Z,12.77
2018-07-04T05:24:55.446Z,11.20
2018-07-04T05:27:35.294Z,11.20
2018-07-04T05:30:15.109Z,11.40
2018-07-04T05:32:54.838Z,10.67
2018-07-04T05:35:34.668Z,10.67
2018-07-04T05:38:08.486Z,10.97
2018-07-04T05:40:42.233Z,10.67
2018-07-04T05:43:22.019Z,11.10
2018-07-04T05:45:55.791Z,10.33
2018-07-04T05:48:35.377Z,9.13
2018-07-04T05:51:15.043Z,9.23
2018-07-04T05:53:54.924Z,8.03
2018-07-04T05:56:34.610Z,9.53
2018-07-04T05:59:08.251Z,8.90
2018-07-04T06:01:48.128Z,8.30
2018-07-04T06:04:27.798Z,7.83
2018-07-04T06:07:07.379Z,6.27
2018-07-04T06:09:47.116Z,6.47
2018-07-04T06:12:26.886Z,5.07
2018-07-04T06:15:06.929Z,5.90
2018-07-04T06:17:46.766Z,6.33
2018-07-04T06:20:26.466Z,5.93
2018-07-04T06:23:06.151Z,5.57
2018-07-04T06:25:45.856Z,5.10
2018-07-04T06:28:25.404Z,3.93
2018-07-04T06:31:05.177Z,4.67
2018-07-04T06:33:44.887Z,4.90
2018-07-04T06:36:24.546Z,4.77
2018-07-04T06:38:51.930Z,4.27
2018-07-04T06:41:19.372Z,5.20
2018-07-04T06:43:46.735Z,6.23
2018-07-04T06:46:14.116Z,4.50
2018-07-04T06:48:41.512Z,5.80
2018-07-04T06:51:08.931Z,5.93
2018-07-04T06:53:36.354Z,6.27
2018-07-04T06:56:03.747Z,6.47
2018-07-04T06:58:31.184Z,6.17
2018-07-04T07:00:58.630Z,5.83
2018-07-04T07:03:38.460Z,5.30
2018-07-04T07:06:18.064Z,6.17
2018-07-04T07:08:57.777Z,5.47
2018-07-04T07:11:37.750Z,5.77
2018-07-04T07:14:17.428Z,5.27
2018-07-04T07:16:57.196Z,5.03
2018-07-04T07:19:36.914Z,5.50
2018-07-04T07:22:16.554Z,4.83
2018-07-04T07:24:56.211Z,5.33
2018-07-04T07:27:35.912Z,4.40
2018-07-04T07:30:15.685Z,4.20
2018-07-04T07:32:55.674Z,4.37
2018-07-04T07:35:35.430Z,4.33
2018-07-04T07:38:15.051Z,4.33
2018-07-04T07:40:54.873Z,3.40
2018-07-04T07:43:34.712Z,2.70
2018-07-04T07:46:14.487Z,2.87
2018-07-04T07:48:54.177Z,3.43
2018-07-04T07:51:33.935Z,3.13
2018-07-04T07:54:14.868Z,2.63
2018-07-04T07:56:54.781Z,2.70
2018-07-04T07:59:34.680Z,3.23
2018-07-04T08:02:14.382Z,3.10
2018-07-04T08:04:53.914Z,2.70
2018-07-04T08:07:33.814Z,3.20
2018-07-04T08:10:13.711Z,2.80
2018-07-04T08:12:53.407Z,3.43
2018-07-04T08:15:33.338Z,3.37
2018-07-04T08:18:07.121Z,3.23
2018-07-04T08:20:46.808Z,3.20
2018-07-04T08:23:26.530Z,3.40
2018-07-04T08:26:06.098Z,3.37
2018-07-04T08:28:45.811Z,2.83
2018-07-04T08:31:25.484Z,3.43
2018-07-04T08:34:05.127Z,3.10
2018-07-04T08:36:44.871Z,3.27
2018-07-04T08:39:24.628Z,2.70
2018-07-04T08:42:04.368Z,3.30
2018-07-04T08:44:44.297Z,3.00
2018-07-04T08:47:23.936Z,3.87
2018-07-04T08:50:03.748Z,3.40
2018-07-04T08:52:43.584Z,2.83
2018-07-04T08:55:23.513Z,3.10
2018-07-04T08:58:03.326Z,3.10
2018-07-04T09:00:43.163Z,3.00
2018-07-04T09:03:22.787Z,2.80
2018-07-04T09:06:02.697Z,2.60
2018-07-04T09:08:42.379Z,2.80
2018-07-04T09:11:22.139Z,2.70
2018-07-04T09:14:01.900Z,3.00
2018-07-04T09:16:41.538Z,2.80
2018-07-04T09:19:21.375Z,2.87
2018-07-04T09:22:00.924Z,2.90
2018-07-04T09:24:40.539Z,2.73
2018-07-04T09:27:20.195Z,2.70
2018-07-04T09:29:59.816Z,3.10
2018-07-04T09:32:39.374Z,3.10
2018-07-04T09:35:19.190Z,3.33
2018-07-04T09:37:59.098Z,3.03
2018-07-04T09:40:32.774Z,2.83
2018-07-04T09:43:12.464Z,3.30
2018-07-04T09:45:52.179Z,3.30
2018-07-04T09:48:31.922Z,2.90
2018-07-04T09:51:11.509Z,2.77
2018-07-04T09:53:51.426Z,2.57
2018-07-04T09:56:31.251Z,2.50
2018-07-04T09:59:11.074Z,2.67
2018-07-04T10:01:50.831Z,2.57
2018-07-04T10:04:30.355Z,2.83
2018-07-04T10:07:09.999Z,2.90
2018-07-04T10:09:49.778Z,2.23
2018-07-04T10:12:29.541Z,2.30
2018-07-04T10:15:09.238Z,2.30
2018-07-04T10:17:48.937Z,2.87
2018-07-04T10:20:28.548Z,2.40
2018-07-04T10:23:08.951Z,2.20
2018-07-04T10:25:48.583Z,2.27
2018-07-04T10:28:28.349Z,2.33
2018-07-04T10:31:08.006Z,2.13
2018-07-04T10:33:41.759Z,2.60
2018-07-04T10:36:21.571Z,2.03
2018-07-04T10:39:01.254Z,2.27
2018-07-04T10:41:40.937Z,2.10
2018-07-04T10:44:14.735Z,2.47
2018-07-04T10:46:54.415Z,2.67
2018-07-04T10:49:34.113Z,2.30
2018-07-04T10:52:13.795Z,2.93
2018-07-04T10:54:53.764Z,2.10
2018-07-04T10:57:33.531Z,2.10
2018-07-04T11:00:13.183Z,2.43
2018-07-04T11:02:52.956Z,2.47
2018-07-04T11:05:32.774Z,2.50
2018-07-04T11:08:12.535Z,2.53
2018-07-04T11:10:52.420Z,2.80
2018-07-04T11:13:32.275Z,2.57
2018-07-04T11:16:11.898Z,2.50
2018-07-04T11:18:51.483Z,2.53
2018-07-04T11:21:31.295Z,2.87
2018-07-04T11:24:10.958Z,2.60
2018-07-04T11:26:50.738Z,2.40
2018-07-04T11:29:24.491Z,2.53
2018-07-04T11:32:04.242Z,2.73
2018-07-04T11:34:43.901Z,2.37
2018-07-04T11:37:23.501Z,2.43
2018-07-04T11:40:03.216Z,2.67
2018-07-04T11:42:43.042Z,2.47
2018-07-04T11:45:22.731Z,2.83
2018-07-04T11:47:50.092Z,3.00
2018-07-04T11:50:17.476Z,2.90
2018-07-04T11:52:45.121Z,2.67
2018-07-04T11:55:12.538Z,2.53
2018-07-04T11:57:39.914Z,2.80
2018-07-04T12:00:07.282Z,2.50
2018-07-04T12:02:34.634Z,2.50
2018-07-04T12:05:14.360Z,2.13
2018-07-04T12:07:41.964Z,2.40
2018-07-04T12:10:09.355Z,3.03
2018-07-04T12:12:36.780Z,2.50
2018-07-04T12:15:04.171Z,2.30
2018-07-04T12:17:31.543Z,2.30
2018-07-04T12:19:59.036Z,2.17
2018-07-04T12:22:26.648Z,3.03
2018-07-04T12:24:54.003Z,2.30
2018-07-04T12:27:21.410Z,2.70
2018-07-04T12:29:48.759Z,2.73
2018-07-04T12:32:16.151Z,2.37
2018-07-04T12:34:43.506Z,2.70
2018-07-04T12:37:10.912Z,2.17
2018-07-04T12:39:38.276Z,2.17
2018-07-04T12:42:05.957Z,2.53
2018-07-04T12:44:33.333Z,2.07
2018-07-04T12:47:00.800Z,2.53
2018-07-04T12:49:29.232Z,2.40
2018-07-04T12:51:56.630Z,2.50
2018-07-04T12:54:29.356Z,1.90
2018-07-04T12:57:03.023Z,2.17
2018-07-04T12:59:42.810Z,2.00
2018-07-04T13:02:22.490Z,2.03
2018-07-04T13:05:02.098Z,2.13
2018-07-04T13:07:41.809Z,2.10
2018-07-04T13:10:21.582Z,1.93
2018-07-04T13:13:01.366Z,2.20
2018-07-04T13:15:41.126Z,1.70
2018-07-04T13:18:20.822Z,2.03
2018-07-04T13:21:00.413Z,2.07
2018-07-04T13:23:40.170Z,1.60
2018-07-04T13:26:19.864Z,1.90
2018-07-04T13:28:59.607Z,1.80
2018-07-04T13:31:39.865Z,2.10
2018-07-04T13:34:19.949Z,1.80
2018-07-04T13:36:54.054Z,1.77
2018-07-04T13:39:33.982Z,1.60
2018-07-04T13:42:14.057Z,1.50
2018-07-04T13:44:54.093Z,1.60
2018-07-04T13:47:34.346Z,1.33
2018-07-04T13:50:14.186Z,2.13
2018-07-04T13:52:53.838Z,1.83
2018-07-04T13:55:33.645Z,2.33
2018-07-04T13:58:13.314Z,1.80
2018-07-04T14:00:52.885Z,1.60
2018-07-04T14:03:32.548Z,1.60
2018-07-04T14:06:12.054Z,1.50
2018-07-04T14:08:45.921Z,1.53
2018-07-04T14:11:25.678Z,1.20
2018-07-04T14:14:05.421Z,1.47
2018-07-04T14:16:45.107Z,1.50
2018-07-04T14:19:24.679Z,1.40
2018-07-04T14:22:04.402Z,1.63
2018-07-04T14:24:44.130Z,1.30
2018-07-04T14:27:23.850Z,1.67
2018-07-04T14:30:03.639Z,1.43
2018-07-04T14:32:43.374Z,1.50
2018-07-04T14:35:23.142Z,1.30
2018-07-04T14:38:02.945Z,1.43
2018-07-04T14:40:42.733Z,1.20
2018-07-04T14:43:22.320Z,1.30
2018-07-04T14:46:02.128Z,1.70
2018-07-04T14:48:42.463Z,1.40
2018-07-04T14:51:22.724Z,1.30
2018-07-04T14:54:02.356Z,1.13
2018-07-04T14:56:42.088Z,1.47
2018-07-04T14:59:21.769Z,1.27
2018-07-04T15:02:01.519Z,1.40
2018-07-04T15:04:41.525Z,1.40
2018-07-04T15:07:21.166Z,1.30
2018-07-04T15:10:01.338Z,2.07
2018-07-04T15:12:41.046Z,2.40
2018-07-04T15:15:20.733Z,1.40
2018-07-04T15:18:00.300Z,1.50
2018-07-04T15:20:40.188Z,1.33
2018-07-04T15:23:19.839Z,1.43
2018-07-04T15:25:59.710Z,1.57
2018-07-04T15:28:39.874Z,1.50
2018-07-04T15:31:19.741Z,1.60
2018-07-04T15:33:59.428Z,1.20
2018-07-04T15:36:39.026Z,1.30
2018-07-04T15:39:18.795Z,1.53
2018-07-04T15:41:58.948Z,1.30
2018-07-04T15:44:39.334Z,1.83
2018-07-04T15:47:19.318Z,1.60
2018-07-04T15:49:59.912Z,1.67
2018-07-04T15:52:39.885Z,1.97
2018-07-04T15:55:14.693Z,1.50
2018-07-04T15:57:48.530Z,1.77
2018-07-04T16:00:30.409Z,1.60
2018-07-04T16:03:10.225Z,1.80
2018-07-04T16:05:50.495Z,2.40
2018-07-04T16:08:30.227Z,1.70
2018-07-04T16:11:10.036Z,1.60
2018-07-04T16:13:49.962Z,1.90
2018-07-04T16:16:29.615Z,1.80
2018-07-04T16:19:09.318Z,1.90
2018-07-04T16:21:49.150Z,1.90
2018-07-04T16:24:28.799Z,1.70
2018-07-04T16:27:08.614Z,2.27
2018-07-04T16:29:48.402Z,1.73
2018-07-04T16:32:28.350Z,2.00
2018-07-04T16:35:08.784Z,2.00
2018-07-04T16:37:48.433Z,1.80
2018-07-04T16:40:28.371Z,1.83
2018-07-04T16:43:08.079Z,1.90
2018-07-04T16:45:47.933Z,1.90
2018-07-04T16:48:27.526Z,2.20
2018-07-04T16:51:08.957Z,2.23
2018-07-04T16:53:49.313Z,1.80
2018-07-04T16:56:29.305Z,1.90
2018-07-04T16:59:09.399Z,1.90
2018-07-04T17:01:49.195Z,2.13
2018-07-04T17:04:29.238Z,2.00
2018-07-04T17:07:09.483Z,2.10
2018-07-04T17:09:49.532Z,2.70
2018-07-04T17:12:23.625Z,1.97
2018-07-04T17:15:03.926Z,1.93
2018-07-04T17:17:45.029Z,2.03
2018-07-04T17:20:25.204Z,2.20
2018-07-04T17:23:05.018Z,1.77
2018-07-04T17:25:44.837Z,2.00
2018-07-04T17:28:25.451Z,2.27
2018-07-04T17:31:05.424Z,1.70
2018-07-04T17:33:45.523Z,1.90
2018-07-04T17:36:25.644Z,2.20
2018-07-04T17:39:00.178Z,2.10
2018-07-04T17:41:40.393Z,2.33
2018-07-04T17:44:20.063Z,2.00
2018-07-04T17:46:59.742Z,1.70
2018-07-04T17:49:39.502Z,2.07
2018-07-04T17:52:19.386Z,1.87
2018-07-04T17:54:59.189Z,1.97
2018-07-04T17:57:38.809Z,2.20
2018-07-04T18:00:18.652Z,1.90
2018-07-04T18:02:58.343Z,2.00
2018-07-04T18:05:37.980Z,1.97
2018-07-04T18:08:17.832Z,1.83
2018-07-04T18:10:57.627Z,1.83
2018-07-04T18:13:37.360Z,1.73
2018-07-04T18:16:17.007Z,1.70
2018-07-04T18:18:56.856Z,1.87
2018-07-04T18:21:37.176Z,1.90
2018-07-04T18:24:17.177Z,1.80
2018-07-04T18:26:57.353Z,1.83
2018-07-04T18:29:37.119Z,1.77
2018-07-04T18:32:17.367Z,1.80
2018-07-04T18:34:57.012Z,1.80
2018-07-04T18:37:36.864Z,1.70
2018-07-04T18:40:16.446Z,2.00
2018-07-04T18:42:56.604Z,1.90
2018-07-04T18:45:36.649Z,1.80
2018-07-04T18:48:16.697Z,1.80
2018-07-04T18:50:56.274Z,1.67
2018-07-04T18:53:35.866Z,1.70
2018-07-04T18:56:15.620Z,2.10
2018-07-04T18:58:55.757Z,1.83
2018-07-04T19:01:35.478Z,1.60
2018-07-04T19:04:15.241Z,1.43
2018-07-04T19:06:55.197Z,1.60
2018-07-04T19:09:34.999Z,1.63
2018-07-04T19:12:14.524Z,1.70
2018-07-04T19:14:54.249Z,1.93
2018-07-04T19:17:33.862Z,1.80
2018-07-04T19:20:13.477Z,1.97
2018-07-04T19:22:53.113Z,1.50
2018-07-04T19:25:32.733Z,1.60
2018-07-04T19:28:12.614Z,1.53
2018-07-04T19:30:52.331Z,1.93
2018-07-04T19:33:32.188Z,2.00
2018-07-04T19:36:11.839Z,1.60
2018-07-04T19:38:51.547Z,1.73
2018-07-04T19:41:31.261Z,1.80
2018-07-04T19:44:11.585Z,2.07
2018-07-04T19:46:52.443Z,1.90
2018-07-04T19:49:32.221Z,2.03
2018-07-04T19:52:11.975Z,1.80
2018-07-04T19:54:51.685Z,1.73
2018-07-04T19:57:31.684Z,1.90
2018-07-04T20:00:12.123Z,2.00
2018-07-04T20:02:52.030Z,2.00
2018-07-04T20:05:31.878Z,1.97
2018-07-04T20:08:11.885Z,1.87
2018-07-04T20:10:51.766Z,1.87
2018-07-04T20:13:31.505Z,1.63
2018-07-04T20:16:11.260Z,1.73
2018-07-04T20:18:51.084Z,1.50
2018-07-04T20:21:30.794Z,2.20
2018-07-04T20:24:10.503Z,1.80
2018-07-04T20:26:50.343Z,1.77
2018-07-04T20:29:30.071Z,1.87
2018-07-04T20:32:09.749Z,2.10
2018-07-04T20:34:49.323Z,2.00
2018-07-04T20:37:28.933Z,2.03
2018-07-04T20:40:08.786Z,1.90
2018-07-04T20:42:48.652Z,2.03
2018-07-04T20:45:28.403Z,2.03
2018-07-04T20:48:08.215Z,1.90
2018-07-04T20:50:48.004Z,1.73
2018-07-04T20:53:27.558Z,2.10
2018-07-04T20:56:07.994Z,2.00
2018-07-04T20:58:47.779Z,2.30
2018-07-04T21:01:27.441Z,2.20
2018-07-04T21:04:07.057Z,2.10
2018-07-04T21:06:46.917Z,2.17
2018-07-04T21:09:26.554Z,2.00
2018-07-04T21:12:06.701Z,2.27
2018-07-04T21:14:46.331Z,2.20
2018-07-04T21:17:26.030Z,2.50
2018-07-04T21:20:05.610Z,2.20
2018-07-04T21:22:39.279Z,2.30
2018-07-04T21:25:19.046Z,2.50
2018-07-04T21:27:58.726Z,2.30
2018-07-04T21:30:38.373Z,2.37
2018-07-04T21:33:18.232Z,2.57
2018-07-04T21:35:57.996Z,2.67
2018-07-04T21:38:37.992Z,2.40
2018-07-04T21:41:17.605Z,2.80
2018-07-04T21:43:57.551Z,2.50
2018-07-04T21:46:37.335Z,2.63
2018-07-04T21:49:17.437Z,3.20
2018-07-04T21:51:57.109Z,2.87
2018-07-04T21:54:36.784Z,3.00
2018-07-04T21:57:16.510Z,3.00
2018-07-04T21:59:56.320Z,3.60
2018-07-04T22:02:36.078Z,3.33
2018-07-04T22:05:15.712Z,3.20
2018-07-04T22:07:55.297Z,3.47
2018-07-04T22:10:34.896Z,3.57
2018-07-04T22:13:14.875Z,3.60
2018-07-04T22:15:54.621Z,3.33
2018-07-04T22:18:34.591Z,3.57
2018-07-04T22:21:14.611Z,3.83
2018-07-04T22:23:54.494Z,4.20
2018-07-04T22:26:34.779Z,3.93
2018-07-04T22:29:14.549Z,4.20
2018-07-04T22:31:54.226Z,3.77
2018-07-04T22:34:33.935Z,4.17
2018-07-04T22:37:13.569Z,5.00
2018-07-04T22:39:55.105Z,4.47
2018-07-04T22:42:36.316Z,3.90
2018-07-04T22:45:17.198Z,4.20
2018-07-04T22:48:00.342Z,4.57
2018-07-04T22:50:40.155Z,3.60
2018-07-04T22:53:21.262Z,3.97
2018-07-04T22:56:01.046Z,3.87
2018-07-04T22:58:40.917Z,3.90
2018-07-04T23:01:20.525Z,3.80
2018-07-04T23:04:00.637Z,3.50
2018-07-04T23:06:40.246Z,3.80
2018-07-04T23:09:20.344Z,3.67
2018-07-04T23:12:00.108Z,3.27
2018-07-04T23:14:39.957Z,3.00
2018-07-04T23:17:19.902Z,2.90
2018-07-04T23:20:01.519Z,3.40
2018-07-04T23:22:43.355Z,3.13
2018-07-04T23:25:20.111Z,3.00
2018-07-04T23:27:59.850Z,2.90
2018-07-04T23:30:40.223Z,3.20
2018-07-04T23:33:19.927Z,3.00
2018-07-04T23:35:59.626Z,2.97
2018-07-04T23:38:39.444Z,3.47
2018-07-04T23:41:19.197Z,3.30
2018-07-04T23:43:59.041Z,3.10
2018-07-04T23:46:38.692Z,3.10
2018-07-04T23:49:18.471Z,2.90
2018-07-04T23:51:58.296Z,3.23
2018-07-04T23:54:38.033Z,2.87
2018-07-04T23:57:17.779Z,3.33
2018-07-04T23:59:57.588Z,3.07
